createdAt,value
2023-02-05T00:00:08.770Z,0.60
2023-02-05T00:02:37.321Z,0.60
2023-02-05T00:05:06.142Z,0.50
2023-02-05T00:07:34.604Z,0.50
2023-02-05T00:10:12.410Z,0.60
2023-02-05T00:12:40.970Z,0.50
2023-02-05T00:15:11.916Z,0.50
2023-02-05T00:17:40.731Z,0.60
2023-02-05T00:20:10.243Z,0.50
2023-02-05T00:22:38.923Z,0.50
2023-02-05T00:25:08.169Z,0.60
2023-02-05T00:27:37.187Z,0.50
2023-02-05T00:30:06.571Z,0.40
2023-02-05T00:32:42.240Z,0.50
2023-02-05T00:35:10.799Z,0.40
2023-02-05T00:37:39.309Z,0.50
2023-02-05T00:40:08.870Z,0.50
2023-02-05T00:42:37.429Z,0.60
2023-02-05T00:45:06.570Z,0.60
2023-02-05T00:47:35.109Z,0.70
2023-02-05T00:50:05.184Z,0.70
2023-02-05T00:52:33.715Z,0.70
2023-02-05T00:55:05.687Z,0.80
2023-02-05T00:57:34.147Z,0.80
2023-02-05T01:00:02.883Z,0.80
2023-02-05T01:02:31.467Z,0.90
2023-02-05T01:04:59.942Z,0.90
2023-02-05T01:07:29.893Z,0.90
2023-02-05T01:09:58.411Z,1.00
2023-02-05T01:12:27.772Z,1.00
2023-02-05T01:14:56.226Z,1.10
2023-02-05T01:17:26.095Z,1.10
2023-02-05T01:19:54.663Z,1.20
2023-02-05T01:22:23.585Z,1.20
2023-02-05T01:24:53.812Z,1.10
2023-02-05T01:27:22.496Z,1.20
2023-02-05T01:29:51.103Z,1.20
2023-02-05T01:32:19.828Z,1.20
2023-02-05T01:34:48.305Z,1.20
2023-02-05T01:37:16.785Z,1.20
2023-02-05T01:39:45.524Z,1.20
2023-02-05T01:42:20.178Z,1.20
2023-02-05T01:45:22.022Z,1.30
2023-02-05T01:47:51.091Z,1.30
2023-02-05T01:50:23.643Z,1.30
2023-02-05T01:52:52.616Z,1.30
2023-02-05T01:55:22.109Z,1.30
2023-02-05T01:57:53.192Z,1.30
2023-02-05T02:00:23.796Z,1.40
2023-02-05T02:02:52.448Z,1.40
2023-02-05T02:05:21.463Z,1.40
2023-02-05T02:07:49.995Z,1.40
2023-02-05T02:10:20.248Z,1.40
2023-02-05T02:12:50.218Z,1.40
2023-02-05T02:15:23.410Z,1.40
2023-02-05T02:17:55.550Z,1.50
2023-02-05T02:20:34.891Z,1.50
2023-02-05T02:23:13.839Z,1.40
2023-02-05T02:26:11.659Z,1.50
2023-02-05T02:28:45.909Z,1.40
2023-02-05T02:31:19.608Z,1.40
2023-02-05T02:33:53.189Z,1.40
2023-02-05T02:36:26.094Z,1.40
2023-02-05T02:38:59.870Z,1.40
2023-02-05T02:41:53.061Z,1.40
2023-02-05T02:44:27.338Z,1.50
2023-02-05T02:47:21.652Z,1.50
2023-02-05T02:50:20.786Z,1.50
2023-02-05T02:52:52.044Z,1.60
2023-02-05T02:55:22.305Z,1.60
2023-02-05T02:57:53.920Z,1.60
2023-02-05T03:00:25.891Z,1.60
2023-02-05T03:03:14.707Z,1.60
2023-02-05T03:05:45.297Z,1.60
2023-02-05T03:08:19.577Z,1.60
2023-02-05T03:10:52.407Z,1.60
2023-02-05T03:13:21.031Z,1.70
2023-02-05T03:15:50.957Z,1.70
2023-02-05T03:18:21.387Z,1.70
2023-02-05T03:20:54.548Z,1.60
2023-02-05T03:23:23.197Z,1.60
2023-02-05T03:25:51.827Z,1.60
2023-02-05T03:28:20.629Z,1.50
2023-02-05T03:30:57.825Z,1.50
2023-02-05T03:33:42.398Z,1.60
2023-02-05T03:36:19.067Z,1.60
2023-02-05T03:39:01.557Z,1.60
2023-02-05T03:41:55.605Z,1.60
2023-02-05T03:44:57.525Z,1.60
2023-02-05T03:47:39.564Z,1.60
2023-02-05T03:50:17.900Z,1.60
2023-02-05T03:52:52.017Z,1.60
2023-02-05T03:55:28.322Z,1.60
2023-02-05T03:58:03.908Z,1.60
2023-02-05T04:00:38.982Z,1.60
2023-02-05T04:03:09.015Z,1.60
2023-02-05T04:05:37.614Z,1.50
2023-02-05T04:08:06.782Z,1.60
2023-02-05T04:10:35.220Z,1.50
2023-02-05T04:13:03.700Z,1.60
2023-02-05T04:15:51.118Z,1.60
2023-02-05T04:18:21.238Z,1.60
2023-02-05T04:20:50.376Z,1.60
2023-02-05T04:23:19.251Z,1.60
2023-02-05T04:25:48.117Z,1.60
2023-02-05T04:28:16.717Z,1.60
2023-02-05T04:30:45.292Z,1.60
2023-02-05T04:33:13.731Z,1.50
2023-02-05T04:35:43.668Z,1.60
2023-02-05T04:38:12.164Z,1.50
2023-02-05T04:40:41.273Z,1.50
2023-02-05T04:43:09.790Z,1.50
2023-02-05T04:48:34.833Z,1.50
2023-02-05T04:51:17.673Z,1.50
2023-02-05T04:53:46.249Z,1.60
2023-02-05T04:56:16.595Z,1.60
2023-02-05T04:58:45.777Z,1.60
2023-02-05T05:01:18.889Z,1.60
2023-02-05T05:03:48.125Z,1.60
2023-02-05T05:06:19.268Z,1.60
2023-02-05T05:08:47.835Z,1.70
2023-02-05T05:11:20.536Z,1.70
2023-02-05T05:13:49.938Z,1.70
2023-02-05T05:16:18.472Z,1.70
2023-02-05T05:18:47.391Z,1.70
2023-02-05T05:21:17.293Z,1.80
2023-02-05T05:23:45.727Z,1.70
2023-02-05T05:26:14.895Z,1.70
2023-02-05T05:28:43.304Z,1.60
2023-02-05T05:31:16.937Z,1.60
2023-02-05T05:33:45.543Z,1.60
2023-02-05T05:36:14.376Z,1.60
2023-02-05T05:38:44.541Z,1.60
2023-02-05T05:41:37.995Z,1.60
2023-02-05T05:44:06.746Z,1.70
2023-02-05T05:46:35.496Z,1.70
2023-02-05T05:49:07.280Z,1.70
2023-02-05T05:51:35.821Z,1.70
2023-02-05T05:54:08.796Z,1.70
2023-02-05T05:56:38.376Z,1.60
2023-02-05T05:59:07.032Z,1.60
2023-02-05T06:01:35.542Z,1.60
2023-02-05T06:04:04.408Z,1.60
2023-02-05T06:06:33.055Z,1.70
2023-02-05T06:09:01.569Z,1.70
2023-02-05T06:11:31.509Z,1.80
2023-02-05T06:14:00.009Z,1.80
2023-02-05T06:16:31.602Z,1.80
2023-02-05T06:19:00.218Z,1.80
2023-02-05T06:21:28.813Z,1.70
2023-02-05T06:23:57.468Z,1.70
2023-02-05T06:26:25.926Z,1.70
2023-02-05T06:28:57.312Z,1.80
2023-02-05T06:31:25.917Z,1.80
2023-02-05T06:33:54.487Z,1.90
2023-02-05T06:36:23.025Z,2.00
2023-02-05T06:39:09.890Z,2.00
2023-02-05T06:41:42.822Z,1.90
2023-02-05T06:44:12.741Z,1.90
2023-02-05T06:46:46.402Z,1.90
2023-02-05T06:49:14.804Z,1.90
2023-02-05T06:51:43.341Z,1.90
2023-02-05T06:54:11.882Z,1.90
2023-02-05T06:56:40.337Z,1.90
2023-02-05T06:59:08.773Z,1.90
2023-02-05T07:01:38.837Z,1.90
2023-02-05T07:04:07.748Z,1.90
2023-02-05T07:06:36.249Z,1.90
2023-02-05T07:09:05.338Z,1.90
2023-02-05T07:11:34.042Z,1.90
2023-02-05T07:14:02.868Z,1.90
2023-02-05T07:16:31.474Z,1.90
2023-02-05T07:19:01.337Z,2.00
2023-02-05T07:21:29.898Z,2.00
2023-02-05T07:23:58.366Z,2.00
2023-02-05T07:26:48.435Z,2.00
2023-02-05T07:29:17.157Z,2.00
2023-02-05T07:31:45.789Z,2.10
2023-02-05T07:34:15.845Z,2.10
2023-02-05T07:36:44.344Z,2.10
2023-02-05T07:39:12.827Z,2.10
2023-02-05T07:41:41.305Z,2.10
2023-02-05T07:44:10.152Z,2.10
2023-02-05T07:46:39.897Z,2.10
2023-02-05T07:49:08.641Z,2.10
2023-02-05T07:51:38.860Z,2.10
2023-02-05T07:54:08.612Z,2.20
2023-02-05T07:56:37.170Z,2.10
2023-02-05T07:59:06.780Z,2.10
2023-02-05T08:01:35.459Z,2.20
2023-02-05T08:04:04.195Z,2.20
2023-02-05T08:06:33.537Z,2.20
2023-02-05T08:09:03.760Z,2.30
2023-02-05T08:11:32.739Z,2.30
2023-02-05T08:14:02.489Z,2.30
2023-02-05T08:16:31.116Z,2.40
2023-02-05T08:18:59.611Z,2.40
2023-02-05T08:21:28.089Z,2.40
2023-02-05T08:23:57.703Z,2.50
2023-02-05T08:26:27.635Z,2.50
2023-02-05T08:28:57.391Z,2.50
2023-02-05T08:31:25.865Z,2.50
2023-02-05T08:33:57.982Z,2.50
2023-02-05T08:36:26.485Z,2.60
2023-02-05T08:38:55.101Z,2.50
2023-02-05T08:41:23.900Z,2.50
2023-02-05T08:43:53.888Z,2.50
2023-02-05T08:46:31.572Z,2.50
2023-02-05T08:49:05.960Z,2.60
2023-02-05T08:51:38.840Z,2.60
2023-02-05T08:54:13.495Z,2.70
2023-02-05T08:56:42.949Z,2.70
2023-02-05T08:59:18.100Z,2.60
2023-02-05T09:01:49.451Z,2.70
2023-02-05T09:04:19.559Z,2.70
2023-02-05T09:06:50.636Z,2.70
2023-02-05T09:09:22.402Z,2.70
2023-02-05T09:11:51.382Z,2.70
2023-02-05T09:14:27.498Z,2.70
2023-02-05T09:16:56.708Z,2.70
2023-02-05T09:19:29.786Z,2.60
2023-02-05T09:22:00.345Z,2.70
2023-02-05T09:24:31.363Z,2.70
2023-02-05T09:27:09.470Z,2.70
2023-02-05T09:29:46.708Z,2.80
2023-02-05T09:32:22.181Z,2.90
2023-02-05T09:34:54.899Z,2.90
2023-02-05T09:37:26.675Z,2.90
2023-02-05T09:42:54.745Z,2.90
2023-02-05T09:45:50.298Z,2.90
2023-02-05T09:48:51.496Z,2.90
2023-02-05T09:51:32.005Z,2.90
2023-02-05T09:54:15.035Z,2.80
2023-02-05T09:56:55.338Z,2.80
2023-02-05T09:59:31.183Z,2.80
2023-02-05T10:02:24.242Z,2.70
2023-02-05T10:04:59.072Z,2.70
2023-02-05T10:07:37.932Z,2.80
2023-02-05T10:10:33.715Z,2.80
2023-02-05T10:13:38.382Z,2.80
2023-02-05T10:16:48.802Z,2.90
2023-02-05T10:19:38.450Z,3.00
2023-02-05T10:22:18.850Z,3.10
2023-02-05T10:25:19.260Z,3.10
2023-02-05T10:27:55.229Z,3.00
2023-02-05T10:30:30.792Z,3.10
2023-02-05T10:33:00.720Z,3.10
2023-02-05T10:35:44.455Z,3.20
2023-02-05T10:38:18.566Z,3.40
2023-02-05T10:40:55.015Z,3.40
2023-02-05T10:43:27.638Z,3.40
2023-02-05T10:46:02.562Z,3.30
2023-02-05T10:48:42.231Z,3.30
2023-02-05T10:51:16.202Z,3.20
2023-02-05T10:53:45.297Z,3.20
2023-02-05T10:56:18.748Z,3.10
2023-02-05T10:58:50.775Z,3.10
2023-02-05T11:01:24.418Z,3.10
2023-02-05T11:04:00.338Z,3.00
2023-02-05T11:06:39.403Z,3.10
2023-02-05T11:10:23.272Z,3.20
2023-02-05T11:12:54.571Z,3.10
2023-02-05T11:15:26.108Z,3.10
2023-02-05T11:17:58.015Z,3.20
2023-02-05T11:20:30.696Z,3.20
2023-02-05T11:23:17.796Z,3.20
2023-02-05T11:25:54.962Z,3.20
2023-02-05T11:28:27.721Z,3.20
2023-02-05T11:30:56.530Z,3.20
2023-02-05T11:33:31.390Z,3.20
2023-02-05T11:36:03.278Z,3.20
2023-02-05T11:38:39.036Z,3.20
2023-02-05T11:41:10.195Z,3.20
2023-02-05T11:43:41.651Z,3.20
2023-02-05T11:46:44.229Z,3.20
2023-02-05T11:49:22.520Z,3.10
2023-02-05T11:51:54.714Z,3.10
2023-02-05T11:54:29.912Z,3.10
2023-02-05T11:57:03.801Z,3.10
2023-02-05T11:59:33.124Z,3.10
2023-02-05T12:02:31.445Z,3.10
2023-02-05T12:05:21.290Z,3.20
2023-02-05T12:08:00.310Z,3.20
2023-02-05T12:10:39.086Z,3.20
2023-02-05T12:13:19.826Z,3.30
2023-02-05T12:15:57.867Z,3.30
2023-02-05T12:18:42.831Z,3.30
2023-02-05T12:21:21.958Z,3.30
2023-02-05T12:24:12.330Z,3.30
2023-02-05T12:26:44.298Z,3.30
2023-02-05T12:29:57.266Z,3.30
2023-02-05T12:32:36.622Z,3.20
2023-02-05T12:35:21.171Z,3.10
2023-02-05T12:37:55.740Z,3.10
2023-02-05T12:40:45.381Z,3.10
2023-02-05T12:43:29.652Z,3.10
2023-02-05T12:46:06.927Z,3.10
2023-02-05T12:48:58.676Z,3.10
2023-02-05T12:51:43.521Z,3.10
2023-02-05T12:54:42.697Z,3.20
2023-02-05T12:57:15.031Z,3.20
2023-02-05T12:59:47.979Z,3.20
2023-02-05T13:02:24.291Z,3.30
2023-02-05T13:05:02.841Z,3.30
2023-02-05T13:07:37.773Z,3.40
2023-02-05T13:10:08.456Z,3.40
2023-02-05T13:12:59.881Z,3.50
2023-02-05T13:15:34.379Z,3.50
2023-02-05T13:18:06.792Z,3.50
2023-02-05T13:21:30.208Z,3.50
2023-02-05T13:24:22.177Z,3.60
2023-02-05T13:27:07.965Z,3.60
2023-02-05T13:29:51.611Z,3.60
2023-02-05T13:32:31.255Z,3.50
2023-02-05T13:35:00.380Z,3.50
2023-02-05T13:37:49.005Z,3.60
2023-02-05T13:40:29.654Z,3.60
2023-02-05T13:43:40.436Z,3.60
2023-02-05T13:46:48.336Z,3.60
2023-02-05T13:50:01.601Z,3.60
2023-02-05T13:52:52.278Z,3.70
2023-02-05T13:56:05.055Z,3.70
2023-02-05T13:58:36.292Z,3.70
2023-02-05T14:01:08.426Z,3.60
2023-02-05T14:03:40.485Z,3.60
2023-02-05T14:06:24.563Z,3.60
2023-02-05T14:09:00.704Z,3.60
2023-02-05T14:11:29.904Z,3.60
2023-02-05T14:14:24.734Z,3.50
2023-02-05T14:16:56.483Z,3.60
2023-02-05T14:19:27.817Z,3.60
2023-02-05T14:22:34.674Z,3.60
2023-02-05T14:25:03.349Z,3.60
2023-02-05T14:27:55.720Z,3.60
2023-02-05T14:30:37.983Z,3.70
2023-02-05T14:33:31.542Z,3.80
2023-02-05T14:36:33.339Z,3.90
2023-02-05T14:39:20.948Z,4.00
2023-02-05T14:41:55.234Z,4.00
2023-02-05T14:44:28.751Z,4.00
2023-02-05T14:47:02.614Z,3.90
2023-02-05T14:49:38.068Z,3.90
2023-02-05T14:52:10.064Z,3.80
2023-02-05T14:54:48.537Z,3.90
2023-02-05T14:57:25.339Z,3.90
2023-02-05T14:59:58.432Z,4.00
2023-02-05T15:02:54.892Z,4.10
2023-02-05T15:05:31.122Z,4.10
2023-02-05T15:08:08.132Z,4.20
2023-02-05T15:10:50.375Z,4.10
2023-02-05T15:13:21.671Z,4.20
2023-02-05T15:16:20.067Z,4.20
2023-02-05T15:18:58.722Z,4.20
2023-02-05T15:21:45.012Z,4.20
2023-02-05T15:24:18.793Z,4.20
2023-02-05T15:26:53.747Z,4.30
2023-02-05T15:29:33.336Z,4.30
2023-02-05T15:32:05.231Z,4.20
2023-02-05T15:34:41.918Z,4.20
2023-02-05T15:37:24.446Z,4.20
2023-02-05T15:39:57.170Z,4.20
2023-02-05T15:42:32.698Z,4.10
2023-02-05T15:45:22.678Z,4.10
2023-02-05T15:48:01.006Z,4.00
2023-02-05T15:50:33.323Z,3.90
2023-02-05T15:53:03.488Z,3.80
2023-02-05T15:55:34.321Z,3.70
2023-02-05T15:58:07.736Z,3.60
2023-02-05T16:00:41.597Z,3.50
2023-02-05T16:03:27.997Z,3.40
2023-02-05T16:05:57.034Z,3.20
2023-02-05T16:08:29.732Z,3.00
2023-02-05T16:11:02.220Z,2.90
2023-02-05T16:13:32.640Z,2.90
2023-02-05T16:16:09.540Z,2.80
2023-02-05T16:18:44.449Z,2.80
2023-02-05T16:21:22.640Z,2.70
2023-02-05T16:23:57.696Z,2.50
2023-02-05T16:26:36.825Z,2.40
2023-02-05T16:29:24.461Z,2.20
2023-02-05T16:32:04.832Z,2.20
2023-02-05T16:34:37.405Z,2.20
2023-02-05T16:37:11.179Z,2.20
2023-02-05T16:39:44.847Z,2.20
2023-02-05T16:42:30.658Z,2.10
2023-02-05T16:45:21.429Z,2.00
2023-02-05T16:48:23.105Z,1.90
2023-02-05T16:50:55.807Z,1.80
2023-02-05T16:53:26.663Z,1.80
2023-02-05T16:56:00.279Z,1.70
2023-02-05T16:58:41.301Z,1.70
2023-02-05T17:01:13.437Z,1.60
2023-02-05T17:03:49.368Z,1.50
2023-02-05T17:06:21.196Z,1.50
2023-02-05T17:08:57.155Z,1.50
2023-02-05T17:11:39.171Z,1.50
2023-02-05T17:14:26.640Z,1.50
2023-02-05T17:17:00.060Z,1.50
2023-02-05T17:19:32.178Z,1.50
2023-02-05T17:22:25.436Z,1.60
2023-02-05T17:24:55.066Z,1.60
2023-02-05T17:27:36.215Z,1.70
2023-02-05T17:30:06.956Z,1.70
2023-02-05T17:32:38.904Z,1.70
2023-02-05T17:35:16.435Z,1.70
2023-02-05T17:37:46.250Z,1.70
2023-02-05T17:40:15.450Z,1.60
2023-02-05T17:42:46.360Z,1.60
2023-02-05T17:45:21.147Z,1.60
2023-02-05T17:47:51.672Z,1.40
2023-02-05T17:50:21.217Z,1.40
2023-02-05T17:52:50.145Z,1.40
2023-02-05T17:55:22.854Z,1.40
2023-02-05T17:57:51.977Z,1.40
2023-02-05T18:00:23.646Z,1.40
2023-02-05T18:02:54.975Z,1.50
2023-02-05T18:05:25.439Z,1.60
2023-02-05T18:07:56.918Z,1.50
2023-02-05T18:10:32.644Z,1.50
2023-02-05T18:13:01.631Z,1.50
2023-02-05T18:15:33.682Z,1.50
2023-02-05T18:18:06.196Z,1.50
2023-02-05T18:20:35.645Z,1.40
2023-02-05T18:23:04.667Z,1.40
2023-02-05T18:25:33.848Z,1.40
2023-02-05T18:28:02.591Z,1.40
2023-02-05T18:30:31.760Z,1.30
2023-02-05T18:33:00.454Z,1.20
2023-02-05T18:35:31.024Z,1.20
2023-02-05T18:37:59.958Z,1.20
2023-02-05T18:40:28.536Z,1.20
2023-02-05T18:42:58.165Z,1.20
2023-02-05T18:45:27.028Z,1.20
2023-02-05T18:47:55.813Z,1.20
2023-02-05T18:50:24.807Z,1.20
2023-02-05T18:52:57.973Z,1.20
2023-02-05T18:55:27.296Z,1.20
2023-02-05T18:57:56.637Z,1.20
2023-02-05T19:00:25.864Z,1.20
2023-02-05T19:02:56.289Z,1.20
2023-02-05T19:05:25.676Z,1.20
2023-02-05T19:07:55.324Z,1.20
2023-02-05T19:10:25.972Z,1.20
2023-02-05T19:12:55.825Z,1.10
2023-02-05T19:15:24.715Z,1.10
2023-02-05T19:17:54.320Z,1.10
2023-02-05T19:20:23.495Z,1.10
2023-02-05T19:22:54.630Z,1.10
2023-02-05T19:25:26.420Z,1.10
2023-02-05T19:27:55.403Z,1.10
2023-02-05T19:30:24.809Z,1.10
2023-02-05T19:32:53.610Z,1.10
2023-02-05T19:35:22.575Z,1.10
2023-02-05T19:37:53.258Z,1.10
2023-02-05T19:40:22.365Z,1.10
2023-02-05T19:42:56.612Z,1.00
2023-02-05T19:45:26.264Z,0.70
2023-02-05T19:47:55.000Z,0.50
2023-02-05T19:50:23.875Z,0.40
2023-02-05T19:52:55.152Z,0.40
2023-02-05T19:55:24.066Z,0.30
2023-02-05T19:57:54.536Z,0.40
2023-02-05T20:00:23.673Z,0.40
2023-02-05T20:02:55.138Z,0.40
2023-02-05T20:05:25.041Z,0.50
2023-02-05T20:07:55.116Z,0.50
2023-02-05T20:10:24.189Z,0.60
2023-02-05T20:12:55.224Z,0.70
2023-02-05T20:15:27.218Z,0.70
2023-02-05T20:17:58.399Z,0.70
2023-02-05T20:20:33.630Z,0.60
2023-02-05T20:23:03.416Z,0.40
2023-02-05T20:25:32.315Z,0.40
2023-02-05T20:28:02.894Z,0.30
2023-02-05T20:30:48.868Z,0.30
2023-02-05T20:33:17.795Z,0.30
2023-02-05T20:35:46.548Z,0.20
2023-02-05T20:38:15.273Z,0.30
2023-02-05T20:40:43.909Z,0.30
2023-02-05T20:43:14.117Z,0.30
2023-02-05T20:45:46.387Z,0.40
2023-02-05T20:48:15.321Z,0.40
2023-02-05T20:50:44.270Z,0.50
2023-02-05T20:53:12.982Z,0.50
2023-02-05T20:55:41.539Z,0.60
2023-02-05T20:58:10.116Z,0.70
2023-02-05T21:00:40.549Z,0.70
2023-02-05T21:03:09.253Z,0.80
2023-02-05T21:05:38.021Z,0.80
2023-02-05T21:08:07.032Z,0.80
2023-02-05T21:10:35.830Z,0.90
2023-02-05T21:13:04.743Z,0.90
2023-02-05T21:15:35.523Z,0.90
2023-02-05T21:18:05.661Z,0.80
2023-02-05T21:20:34.629Z,0.80
2023-02-05T21:23:06.485Z,0.80
2023-02-05T21:25:37.249Z,0.90
2023-02-05T21:28:06.296Z,0.90
2023-02-05T21:30:35.571Z,0.90
2023-02-05T21:33:05.921Z,0.90
2023-02-05T21:35:38.083Z,0.90
2023-02-05T21:38:07.022Z,0.80
2023-02-05T21:40:35.943Z,0.80
2023-02-05T21:43:04.706Z,0.80
2023-02-05T21:45:36.822Z,0.70
2023-02-05T21:48:07.412Z,0.70
2023-02-05T21:50:37.101Z,0.80
2023-02-05T21:53:05.711Z,0.80
2023-02-05T21:55:34.834Z,0.80
2023-02-05T21:58:03.381Z,0.80
2023-02-05T22:00:31.815Z,0.80
2023-02-05T22:03:00.325Z,0.70
2023-02-05T22:05:30.517Z,0.70
2023-02-05T22:07:59.033Z,0.70
2023-02-05T22:10:34.640Z,0.60
2023-02-05T22:13:03.804Z,0.60
2023-02-05T22:15:32.729Z,0.70
2023-02-05T22:18:01.380Z,0.70
2023-02-05T22:20:31.309Z,0.70
2023-02-05T22:22:59.788Z,0.70
2023-02-05T22:25:28.367Z,0.70
2023-02-05T22:27:56.956Z,0.70
2023-02-05T22:30:25.481Z,0.70
2023-02-05T22:32:55.097Z,0.80
2023-02-05T22:35:23.606Z,0.70
2023-02-05T22:37:53.496Z,0.80
2023-02-05T22:40:22.147Z,0.80
2023-02-05T22:42:50.665Z,0.80
2023-02-05T22:45:19.226Z,0.80
2023-02-05T22:47:47.698Z,0.80
2023-02-05T22:50:16.637Z,0.80
2023-02-05T22:52:45.098Z,0.80
2023-02-05T22:55:15.106Z,0.80
2023-02-05T22:57:43.565Z,0.80
2023-02-05T23:00:14.166Z,0.60
2023-02-05T23:02:42.684Z,0.40
2023-02-05T23:05:11.174Z,0.30
2023-02-05T23:07:39.624Z,0.20
2023-02-05T23:10:08.388Z,0.10
2023-02-05T23:12:38.260Z,0.00
2023-02-05T23:15:07.551Z,0.10
2023-02-05T23:17:37.931Z,0.10
2023-02-05T23:20:07.147Z,0.10
2023-02-05T23:22:35.755Z,0.20
2023-02-05T23:25:05.628Z,0.30
2023-02-05T23:27:34.992Z,0.30
2023-02-05T23:30:05.849Z,0.30
2023-02-05T23:32:34.305Z,0.30
2023-02-05T23:35:02.779Z,0.40
2023-02-05T23:37:31.367Z,0.40
2023-02-05T23:39:59.972Z,0.40
2023-02-05T23:42:28.592Z,0.50
2023-02-05T23:44:57.103Z,0.40
2023-02-05T23:47:27.068Z,0.50
2023-02-05T23:49:55.568Z,0.50
2023-02-05T23:52:24.057Z,0.50
2023-02-05T23:54:52.554Z,0.50
2023-02-05T23:57:21.038Z,0.50
2023-02-05T23:59:54.461Z,0.50
